Time;durP1;ratioP1;P1;durP2;ratioP2;P2;SDS_P1;SDS_P2;PMS_P1;PMS_P2;Temp;Humidity;BMP_temperature;BMP_pressure;BME280_temperature;BME280_humidity;BME280_pressure;Samples;Min_cycle;Max_cycle;Signal;HPM_P1;HPM_P2
2023/09/08 00:02:07;;;;;;;1.60;1.50;;;;;;;23.27;53.10;100897.28;4535921;28;20041;-67
2023/09/08 00:04:19;;;;;;;2.05;1.70;;;;;;;23.31;53.21;100909.72;4535466;28;20033;-66
2023/09/08 00:06:29;;;;;;;1.67;1.55;;;;;;;23.30;52.93;100902.28;4544784;28;20103;-66
2023/09/08 00:08:40;;;;;;;1.65;1.55;;;;;;;23.32;52.99;100905.63;4539549;28;20032;-67
2023/09/08 00:10:50;;;;;;;1.70;1.60;;;;;;;23.29;53.29;100903.50;4538741;28;20025;-66
2023/09/08 00:13:01;;;;;;;1.63;1.52;;;;;;;23.31;52.97;100901.91;4553072;28;20626;-66
2023/09/08 00:15:11;;;;;;;1.83;1.60;;;;;;;23.31;52.78;100898.19;4539982;28;20037;-66
2023/09/08 00:17:22;;;;;;;2.35;2.05;;;;;;;23.31;53.10;100906.81;4541927;28;20587;-66
2023/09/08 00:19:32;;;;;;;1.90;1.73;;;;;;;23.32;53.21;100899.88;4539065;28;20063;-67
2023/09/08 00:21:43;;;;;;;2.00;1.80;;;;;;;23.31;53.13;100903.94;4535703;28;20033;-67
2023/09/08 00:23:53;;;;;;;1.67;1.58;;;;;;;23.28;52.96;100894.03;4536044;28;20030;-66
2023/09/08 00:26:04;;;;;;;1.80;1.70;;;;;;;23.30;52.91;100885.00;4544005;28;20900;-66
2023/09/08 00:28:14;;;;;;;1.88;1.70;;;;;;;23.30;53.12;100891.63;4537683;28;20584;-67
2023/09/08 00:30:25;;;;;;;2.15;1.70;;;;;;;23.31;53.09;100898.19;4537503;28;20134;-66
2023/09/08 00:32:36;;;;;;;2.15;1.60;;;;;;;23.30;53.09;100894.50;4537490;28;20426;-66
2023/09/08 00:34:46;;;;;;;1.67;1.58;;;;;;;23.31;52.85;100895.31;4539308;28;20028;-66
2023/09/08 00:36:57;;;;;;;2.10;1.90;;;;;;;23.27;53.14;100880.00;4544584;28;20045;-67
2023/09/08 00:39:07;;;;;;;2.22;1.80;;;;;;;23.30;52.99;100890.78;4537385;28;20022;-66
2023/09/08 00:41:17;;;;;;;1.63;1.52;;;;;;;23.26;53.26;100887.81;4536482;28;20033;-67
2023/09/08 00:43:28;;;;;;;2.15;1.83;;;;;;;23.29;52.72;100883.34;4536998;28;20037;-67
2023/09/08 00:45:41;;;;;;;2.20;2.00;;;;;;;23.30;53.12;100885.84;4537338;28;20396;-66
2023/09/08 00:47:51;;;;;;;2.53;1.90;;;;;;;23.28;53.00;100881.66;4536894;28;20053;-66
2023/09/08 00:50:04;;;;;;;2.03;1.83;;;;;;;23.28;52.78;100884.53;4537316;28;20087;-66
2023/09/08 00:52:14;;;;;;;2.10;1.90;;;;;;;23.30;52.86;100882.13;4537681;28;20037;-69
2023/09/08 00:54:25;;;;;;;1.80;1.70;;;;;;;23.29;52.91;100884.16;4536616;28;20684;-66
2023/09/08 00:56:37;;;;;;;2.13;1.92;;;;;;;23.26;52.84;100889.88;4538904;28;20401;-66
2023/09/08 00:58:47;;;;;;;1.92;1.73;;;;;;;23.22;52.84;100872.47;4538346;28;20030;-66
2023/09/08 01:00:58;;;;;;;2.78;1.90;;;;;;;23.30;52.75;100885.84;4534138;28;20029;-66
2023/09/08 01:03:08;;;;;;;2.53;1.70;;;;;;;23.28;52.71;100873.03;4535912;28;20037;-66
2023/09/08 01:05:19;;;;;;;2.00;1.80;;;;;;;23.30;52.61;100873.50;4536815;28;20041;-66
2023/09/08 01:07:31;;;;;;;1.90;1.80;;;;;;;23.27;52.66;100880.00;4542664;28;20799;-66
2023/09/08 01:09:42;;;;;;;2.08;1.88;;;;;;;23.23;52.45;100871.25;4535444;28;20563;-66
2023/09/08 01:11:55;;;;;;;1.98;1.77;;;;;;;23.24;52.41;100875.81;4537621;28;20106;-67
2023/09/08 01:14:05;;;;;;;1.90;1.80;;;;;;;23.27;52.20;100874.25;4537789;28;20136;-67
2023/09/08 01:16:16;;;;;;;2.85;2.00;;;;;;;23.27;51.93;100877.97;4541472;28;20139;-66
2023/09/08 01:18:26;;;;;;;2.28;1.77;;;;;;;23.24;51.92;100867.19;4538226;28;20033;-66
2023/09/08 01:21:13;;;;;;;2.22;1.80;;;;;;;23.28;51.83;100885.38;4552201;28;20047;-66
2023/09/08 01:23:23;;;;;;;2.00;1.80;;;;;;;23.28;52.06;100881.66;4535903;28;20037;-66
2023/09/08 01:25:39;;;;;;;3.13;1.88;;;;;;;23.29;51.90;100886.22;4544807;28;20041;-66
2023/09/08 01:27:52;;;;;;;1.60;1.40;;;;;;;23.28;52.16;100881.66;4535458;28;20127;-67
2023/09/08 01:30:05;;;;;;;1.75;1.65;;;;;;;23.28;51.99;100893.19;4535749;28;20037;-67
2023/09/08 01:32:16;;;;;;;1.98;1.80;;;;;;;23.25;52.32;100874.63;4548999;28;20036;-67
2023/09/08 01:34:27;;;;;;;2.53;1.90;;;;;;;23.27;51.96;100885.78;4541834;28;20191;-66
2023/09/08 01:36:37;;;;;;;1.92;1.75;;;;;;;23.23;52.27;100885.66;4538016;28;20078;-66
2023/09/08 01:38:48;;;;;;;1.98;1.80;;;;;;;23.19;52.42;100881.03;4536777;28;20040;-67
2023/09/08 01:40:58;;;;;;;2.17;1.80;;;;;;;23.25;52.29;100888.16;4537270;28;20418;-67
2023/09/08 01:43:09;;;;;;;2.10;1.90;;;;;;;23.24;51.93;100884.47;4537187;28;20065;-66
2023/09/08 01:45:19;;;;;;;2.47;1.70;;;;;;;23.25;51.77;100888.16;4535397;28;20044;-66
2023/09/08 01:47:30;;;;;;;1.90;1.80;;;;;;;23.28;51.69;100896.06;4536472;28;20079;-67
2023/09/08 01:49:41;;;;;;;1.95;1.75;;;;;;;23.25;52.01;100893.91;4550745;28;20043;-66
2023/09/08 01:51:52;;;;;;;2.15;1.80;;;;;;;23.20;52.12;100889.28;4536358;28;20075;-67
2023/09/08 01:54:02;;;;;;;1.60;1.50;;;;;;;23.25;51.48;100896.78;4536368;28;20025;-67
2023/09/08 01:56:13;;;;;;;1.80;1.70;;;;;;;23.23;51.46;100885.66;4536656;28;20033;-66
2023/09/08 01:58:24;;;;;;;2.00;1.83;;;;;;;23.25;52.02;100893.91;4551515;28;20108;-66
2023/09/08 02:00:35;;;;;;;1.80;1.67;;;;;;;23.24;51.89;100893.09;4535340;28;20040;-67
2023/09/08 02:02:45;;;;;;;1.90;1.70;;;;;;;23.23;51.54;100876.19;4543233;28;20131;-66
2023/09/08 02:04:56;;;;;;;1.80;1.70;;;;;;;23.24;51.85;100884.47;4541933;28;20132;-67
2023/09/08 02:07:06;;;;;;;1.88;1.70;;;;;;;23.23;51.59;100885.66;4524469;28;20041;-66
2023/09/08 02:09:16;;;;;;;1.80;1.70;;;;;;;23.23;51.95;100884.84;4536676;28;20033;-66
2023/09/08 02:11:27;;;;;;;2.03;1.83;;;;;;;23.21;51.90;100873.66;4537599;28;20593;-67
2023/09/08 02:13:38;;;;;;;1.83;1.67;;;;;;;23.22;51.82;100871.63;4534548;28;20033;-66
2023/09/08 02:15:48;;;;;;;1.80;1.70;;;;;;;23.24;51.46;100877.84;4543058;28;20079;-66
2023/09/08 02:17:59;;;;;;;2.03;1.83;;;;;;;23.24;51.46;100886.50;4540697;28;20081;-67
2023/09/08 02:20:10;;;;;;;1.80;1.70;;;;;;;23.21;51.31;100875.75;4536610;28;20034;-66
2023/09/08 02:22:21;;;;;;;2.10;1.90;;;;;;;23.22;51.63;100881.13;4537064;28;20075;-67
2023/09/08 02:24:31;;;;;;;1.88;1.70;;;;;;;23.25;51.49;100888.16;4535759;28;20461;-66
2023/09/08 02:26:42;;;;;;;1.80;1.70;;;;;;;23.22;51.71;100883.16;4541685;28;20061;-66
2023/09/08 02:28:53;;;;;;;1.70;1.60;;;;;;;23.17;51.65;100880.56;4533646;28;20032;-66
2023/09/08 02:31:03;;;;;;;1.75;1.65;;;;;;;23.17;51.52;100878.53;4536704;28;20520;-66
2023/09/08 02:33:14;;;;;;;2.20;1.90;;;;;;;23.15;52.00;100872.31;4536615;28;20666;-66
2023/09/08 02:35:25;;;;;;;2.38;1.80;;;;;;;23.22;51.26;100884.00;4546441;28;20067;-66
2023/09/08 02:37:36;;;;;;;1.80;1.70;;;;;;;23.19;51.14;100881.03;4542379;28;20064;-67
2023/09/08 02:39:47;;;;;;;1.80;1.70;;;;;;;23.20;51.29;100871.16;4536922;28;20518;-67
2023/09/08 02:41:57;;;;;;;1.70;1.55;;;;;;;23.21;51.10;100879.44;4541244;28;20568;-67
2023/09/08 02:44:08;;;;;;;1.70;1.60;;;;;;;23.22;51.20;100880.28;4534668;28;20042;-67
2023/09/08 02:46:18;;;;;;;1.85;1.67;;;;;;;23.17;51.60;100880.56;4539129;28;20021;-67
2023/09/08 02:48:29;;;;;;;1.95;1.75;;;;;;;23.22;51.24;100880.28;4541456;28;20044;-66
2023/09/08 02:50:39;;;;;;;2.03;1.83;;;;;;;23.19;51.31;100884.75;4535249;28;20028;-66
2023/09/08 02:52:50;;;;;;;2.00;1.80;;;;;;;23.22;51.41;100883.16;4534309;28;20037;-66
2023/09/08 02:55:00;;;;;;;2.08;1.85;;;;;;;23.19;51.48;100883.91;4540521;28;20025;-66
2023/09/08 02:57:11;;;;;;;1.92;1.80;;;;;;;23.20;51.35;100880.66;4535400;28;20037;-67
2023/09/08 02:59:21;;;;;;;2.45;2.15;;;;;;;23.15;51.46;100872.31;4535224;28;20393;-67
2023/09/08 03:01:32;;;;;;;1.95;1.75;;;;;;;23.22;51.35;100886.88;4518767;28;20025;-67
2023/09/08 03:03:43;;;;;;;2.75;1.80;;;;;;;23.22;51.45;100884.00;4532881;28;20031;-67
2023/09/08 03:05:56;;;;;;;2.05;1.85;;;;;;;23.19;51.28;100881.03;4536927;28;20087;-66
2023/09/08 03:08:07;;;;;;;1.88;1.73;;;;;;;23.19;51.22;100881.88;4530380;28;20041;-66
2023/09/08 03:10:17;;;;;;;2.05;1.85;;;;;;;23.17;51.10;100883.44;4536570;28;20033;-67
2023/09/08 03:12:28;;;;;;;2.13;1.92;;;;;;;23.19;51.03;100879.00;4535850;28;20546;-66
2023/09/08 03:14:39;;;;;;;2.92;2.03;;;;;;;23.21;51.60;100887.25;4529839;28;20041;-66
2023/09/08 03:16:50;;;;;;;2.80;1.83;;;;;;;23.19;51.29;100887.63;4533296;28;20029;-66
2023/09/08 03:19:01;;;;;;;2.00;1.70;;;;;;;23.19;51.40;100875.28;4535675;28;20041;-67
2023/09/08 03:21:14;;;;;;;1.98;1.85;;;;;;;23.19;51.29;100878.16;4537025;28;20032;-66
2023/09/08 03:23:24;;;;;;;1.88;1.70;;;;;;;23.18;51.38;100874.44;4541573;28;20076;-67
2023/09/08 03:25:35;;;;;;;2.05;1.85;;;;;;;23.19;51.28;100870.34;4534109;28;20020;-66
2023/09/08 03:27:45;;;;;;;1.60;1.50;;;;;;;23.15;51.51;100868.63;4540522;28;20045;-67
2023/09/08 03:29:56;;;;;;;1.90;1.80;;;;;;;23.18;51.13;100870.75;4541073;28;20946;-66
2023/09/08 03:32:06;;;;;;;2.10;1.90;;;;;;;23.18;50.81;100873.63;4543995;28;20452;-67
2023/09/08 03:34:20;;;;;;;2.00;1.80;;;;;;;23.17;51.07;100863.28;4531914;28;20494;-67
2023/09/08 03:36:30;;;;;;;2.13;1.70;;;;;;;23.14;51.29;100859.13;4541285;28;20642;-67
2023/09/08 03:38:41;;;;;;;2.17;1.80;;;;;;;23.16;50.95;100858.75;4533834;28;20021;-66
2023/09/08 03:40:52;;;;;;;1.90;1.80;;;;;;;23.18;51.33;100860.03;4537226;28;20120;-67
2023/09/08 03:43:02;;;;;;;1.88;1.77;;;;;;;23.15;51.11;100851.34;4551950;28;20036;-67
2023/09/08 03:45:13;;;;;;;2.33;1.75;;;;;;;23.16;51.17;100855.88;4537095;28;20132;-67
2023/09/08 03:47:24;;;;;;;2.25;2.05;;;;;;;23.12;51.34;100850.03;4536661;28;20080;-66
2023/09/08 03:49:35;;;;;;;1.80;1.70;;;;;;;23.18;51.14;100865.78;4549860;28;20140;-66
2023/09/08 03:51:45;;;;;;;1.70;1.60;;;;;;;23.17;51.31;100863.28;4537348;28;20483;-66
2023/09/08 03:53:56;;;;;;;2.00;1.80;;;;;;;23.15;51.10;100866.56;4537851;28;20041;-69
2023/09/08 03:56:07;;;;;;;2.10;1.90;;;;;;;23.16;51.08;100868.25;4531853;28;20112;-67
2023/09/08 03:58:17;;;;;;;2.13;1.77;;;;;;;23.12;50.74;100861.56;4535869;28;20578;-67
2023/09/08 04:00:28;;;;;;;2.00;1.80;;;;;;;23.10;50.82;100851.63;4539174;28;20040;-66
2023/09/08 04:02:39;;;;;;;1.90;1.70;;;;;;;23.15;50.79;100865.75;4549908;28;20036;-67
2023/09/08 04:04:49;;;;;;;2.22;1.90;;;;;;;23.16;50.96;100867.41;4542323;28;20520;-66
2023/09/08 04:07:00;;;;;;;2.00;1.80;;;;;;;23.15;50.94;100865.75;4543611;28;20508;-67
2023/09/08 04:09:10;;;;;;;2.50;1.98;;;;;;;23.15;51.26;100859.97;4543325;28;20013;-67
2023/09/08 04:11:20;;;;;;;2.00;1.80;;;;;;;23.14;50.90;100859.13;4539063;28;20042;-67
2023/09/08 04:13:31;;;;;;;2.25;2.05;;;;;;;23.16;50.89;100865.34;4543121;28;20069;-66
2023/09/08 04:15:41;;;;;;;2.00;1.70;;;;;;;23.16;50.83;100873.16;4538227;28;20465;-66
2023/09/08 04:17:52;;;;;;;1.90;1.80;;;;;;;23.10;51.10;100854.50;4543262;28;20028;-66
2023/09/08 04:20:06;;;;;;;2.08;1.88;;;;;;;23.14;50.89;100861.16;4537656;28;20386;-67
2023/09/08 04:22:17;;;;;;;2.20;2.00;;;;;;;23.14;50.97;100866.94;4553198;28;20033;-66
2023/09/08 04:24:27;;;;;;;2.25;2.05;;;;;;;23.11;50.34;100853.28;4537044;28;20065;-67
2023/09/08 04:26:37;;;;;;;2.10;1.90;;;;;;;23.13;50.76;100868.16;4543259;28;20045;-67
2023/09/08 04:28:48;;;;;;;2.05;1.80;;;;;;;23.03;50.74;100851.47;4551482;28;20147;-66
2023/09/08 04:30:59;;;;;;;2.28;1.80;;;;;;;23.12;50.83;100854.97;4543102;28;20033;-67
2023/09/08 04:33:09;;;;;;;2.60;1.90;;;;;;;23.11;50.55;100856.16;4543203;28;20102;-67
2023/09/08 04:35:20;;;;;;;2.28;2.08;;;;;;;23.12;50.62;100854.97;4534224;28;20033;-67
2023/09/08 04:37:30;;;;;;;2.10;1.88;;;;;;;23.13;50.81;100862.41;4543740;28;20390;-66
2023/09/08 04:39:41;;;;;;;2.33;1.90;;;;;;;23.13;50.53;100871.88;4536466;28;20576;-67
2023/09/08 04:41:51;;;;;;;1.80;1.70;;;;;;;23.14;50.48;100869.81;4543445;28;20043;-67
2023/09/08 04:44:02;;;;;;;2.08;1.88;;;;;;;23.06;50.54;100854.44;4543065;28;20069;-67
2023/09/08 04:46:12;;;;;;;1.95;1.75;;;;;;;23.06;50.39;100853.59;4536731;28;20040;-66
2023/09/08 04:48:23;;;;;;;2.08;1.88;;;;;;;23.13;50.48;100856.63;4537840;28;20034;-67
2023/09/08 04:50:34;;;;;;;2.50;1.90;;;;;;;23.09;50.54;100861.47;4540998;28;20025;-67
2023/09/08 04:52:45;;;;;;;2.15;1.95;;;;;;;23.12;50.47;100857.88;4536320;28;20045;-67
2023/09/08 04:54:55;;;;;;;2.08;1.83;;;;;;;23.12;50.71;100866.50;4535536;28;20398;-67
2023/09/08 04:57:06;;;;;;;2.10;1.90;;;;;;;23.08;50.41;100856.94;4553577;28;20454;-67
2023/09/08 04:59:16;;;;;;;2.63;2.00;;;;;;;23.12;50.62;100866.50;4538417;28;20108;-67
2023/09/08 05:01:29;;;;;;;2.03;1.83;;;;;;;23.10;50.68;100868.91;4552235;28;20032;-67
2023/09/08 05:03:40;;;;;;;2.03;1.83;;;;;;;23.10;50.38;100869.72;4544095;28;20036;-67
2023/09/08 05:05:52;;;;;;;2.15;1.95;;;;;;;23.10;50.54;100868.91;4543675;28;20037;-67
2023/09/08 05:08:03;;;;;;;2.30;2.00;;;;;;;23.10;50.31;100863.97;4542761;28;20037;-67
2023/09/08 05:10:14;;;;;;;1.95;1.80;;;;;;;23.06;50.53;100865.09;4554919;28;20040;-67
2023/09/08 05:12:24;;;;;;;2.17;1.77;;;;;;;23.10;50.62;100871.78;4543486;28;20036;-67
2023/09/08 05:14:35;;;;;;;2.20;2.00;;;;;;;23.08;50.35;100871.31;4543132;28;20032;-67
2023/09/08 05:16:46;;;;;;;2.13;1.92;;;;;;;23.08;50.85;100877.94;4537217;28;20065;-66
2023/09/08 05:19:00;;;;;;;1.95;1.80;;;;;;;23.11;50.43;100884.97;4536654;28;20029;-67
2023/09/08 05:21:11;;;;;;;2.95;1.90;;;;;;;23.11;50.54;100890.72;4554575;28;20037;-66
2023/09/08 05:23:21;;;;;;;2.03;1.83;;;;;;;23.08;50.75;100874.22;4543059;28;20196;-67
2023/09/08 05:25:32;;;;;;;2.10;1.90;;;;;;;23.09;50.44;100881.63;4520937;28;20048;-67
2023/09/08 05:27:42;;;;;;;2.20;2.00;;;;;;;23.09;50.96;100872.97;4535098;28;20033;-67
2023/09/08 05:29:53;;;;;;;2.33;1.73;;;;;;;23.10;50.50;100886.19;4527898;28;20567;-67
2023/09/08 05:32:04;;;;;;;2.05;1.85;;;;;;;23.07;50.63;100881.19;4543544;28;20492;-67
2023/09/08 05:34:14;;;;;;;2.60;1.98;;;;;;;23.00;51.09;100861.72;4542134;28;20128;-67
2023/09/08 05:36:25;;;;;;;2.03;1.80;;;;;;;23.07;50.69;100872.56;4535156;28;20041;-67
2023/09/08 05:38:36;;;;;;;2.03;1.83;;;;;;;23.10;51.36;100874.69;4534614;28;20036;-67
2023/09/08 05:40:47;;;;;;;2.28;2.08;;;;;;;23.09;52.50;100872.97;4542735;28;20527;-65
2023/09/08 05:42:58;;;;;;;2.33;2.13;;;;;;;23.02;50.71;100867.94;4554173;28;20126;-65
2023/09/08 05:45:09;;;;;;;2.00;1.80;;;;;;;23.07;50.69;100884.06;4543429;28;20060;-65
2023/09/08 05:47:19;;;;;;;2.10;1.90;;;;;;;23.03;50.07;100877.38;4537695;28;20511;-65
2023/09/08 05:49:30;;;;;;;2.17;1.98;;;;;;;23.01;50.40;100876.91;4542690;28;20041;-66
2023/09/08 05:51:40;;;;;;;3.15;2.00;;;;;;;22.99;50.81;100876.47;4536317;28;20029;-65
2023/09/08 05:53:51;;;;;;;2.25;1.80;;;;;;;22.99;51.11;100876.47;4554052;28;20029;-65
2023/09/08 05:56:02;;;;;;;2.38;2.05;;;;;;;22.99;50.98;100876.47;4552518;28;20826;-65
2023/09/08 05:58:13;;;;;;;2.63;1.90;;;;;;;22.97;51.34;100885.50;4525820;28;20053;-65
2023/09/08 06:00:24;;;;;;;2.30;2.05;;;;;;;22.91;50.95;100877.53;4534430;28;20473;-65
2023/09/08 06:02:36;;;;;;;1.90;1.80;;;;;;;22.90;51.06;100878.72;4535638;28;20040;-65
2023/09/08 06:04:46;;;;;;;2.10;1.90;;;;;;;22.92;51.54;100876.31;4535109;28;20520;-65
2023/09/08 06:06:57;;;;;;;1.90;1.70;;;;;;;22.91;52.04;100874.66;4536121;28;20056;-65
2023/09/08 06:09:08;;;;;;;2.33;1.90;;;;;;;22.85;52.53;100868.34;4538844;28;20045;-65
2023/09/08 06:11:19;;;;;;;2.53;1.70;;;;;;;22.86;52.40;100867.16;4541529;28;20037;-65
2023/09/08 06:13:29;;;;;;;1.98;1.70;;;;;;;22.84;52.52;100857.22;4534880;28;20030;-65
2023/09/08 06:15:40;;;;;;;2.10;1.90;;;;;;;22.85;52.44;100861.78;4535584;28;20654;-65
2023/09/08 06:17:50;;;;;;;2.40;1.90;;;;;;;22.83;52.75;100867.06;4535520;28;20045;-65
2023/09/08 06:20:01;;;;;;;2.40;2.00;;;;;;;22.77;52.91;100855.00;4542147;28;20064;-65
2023/09/08 06:22:12;;;;;;;2.80;2.05;;;;;;;22.80;53.03;100862.06;4552052;28;20095;-65
2023/09/08 06:24:22;;;;;;;1.85;1.70;;;;;;;22.77;53.22;100855.00;4535707;28;20036;-65
2023/09/08 06:26:33;;;;;;;2.20;2.00;;;;;;;22.81;53.03;100869.47;4525295;28;20482;-65
2023/09/08 06:28:44;;;;;;;2.00;1.80;;;;;;;22.77;53.38;100855.00;4533901;28;20036;-65
2023/09/08 06:30:54;;;;;;;1.92;1.70;;;;;;;22.68;53.45;100850.66;4517196;28;20068;-65
2023/09/08 06:33:05;;;;;;;2.10;1.85;;;;;;;22.77;53.29;100863.63;4538076;28;20028;-65
2023/09/08 06:35:15;;;;;;;2.17;1.98;;;;;;;22.77;53.82;100865.69;4536275;28;20440;-66
2023/09/08 06:37:26;;;;;;;2.05;1.83;;;;;;;22.76;53.92;100861.97;4536300;28;20098;-65
2023/09/08 06:39:36;;;;;;;2.20;2.00;;;;;;;22.76;53.84;100864.84;4536024;28;20115;-65
2023/09/08 06:41:48;;;;;;;3.15;2.05;;;;;;;22.76;53.91;100866.88;4533604;28;20025;-65
2023/09/08 06:44:00;;;;;;;2.08;1.88;;;;;;;22.73;53.95;100864.75;4533389;28;20057;-65
2023/09/08 06:46:12;;;;;;;2.08;1.88;;;;;;;22.74;54.31;100854.94;4536452;28;20032;-65
2023/09/08 06:48:23;;;;;;;2.22;2.03;;;;;;;22.73;54.59;100859.84;4536336;28;20483;-65
2023/09/08 06:50:34;;;;;;;2.30;2.10;;;;;;;22.70;54.83;100851.97;4534970;28;20037;-65
2023/09/08 06:52:45;;;;;;;2.13;1.90;;;;;;;22.73;54.84;100859.84;4551453;28;20147;-65
2023/09/08 06:54:55;;;;;;;2.10;1.90;;;;;;;22.75;55.03;100862.34;4541386;28;20160;-65
2023/09/08 06:57:06;;;;;;;2.35;1.70;;;;;;;22.74;55.05;100858.63;4533398;28;20556;-65
2023/09/08 06:59:17;;;;;;;2.10;1.90;;;;;;;22.75;55.40;100862.34;4542226;28;20109;-65
2023/09/08 07:01:28;;;;;;;2.38;1.90;;;;;;;22.72;55.16;100851.59;4551747;28;20126;-65
2023/09/08 07:03:44;;;;;;;2.00;1.83;;;;;;;22.74;55.81;100861.50;4534647;28;20036;-65
2023/09/08 07:05:57;;;;;;;2.17;1.80;;;;;;;22.75;55.60;100868.09;4534174;28;20083;-65
2023/09/08 07:08:08;;;;;;;2.33;2.05;;;;;;;22.74;56.00;100855.75;4534949;28;20904;-65
2023/09/08 07:10:19;;;;;;;2.30;1.92;;;;;;;22.73;56.08;100861.88;4539358;28;20089;-65
2023/09/08 07:12:31;;;;;;;1.80;1.70;;;;;;;22.76;55.92;100864.84;4535160;28;20033;-65
2023/09/08 07:14:41;;;;;;;2.78;2.20;;;;;;;22.76;56.20;100867.72;4540978;28;20474;-65
2023/09/08 07:16:52;;;;;;;2.35;2.00;;;;;;;22.73;56.37;100861.88;4544912;28;20032;-65
2023/09/08 07:19:02;;;;;;;2.88;2.30;;;;;;;22.77;56.83;100871.44;4539249;28;20036;-69
2023/09/08 07:21:13;;;;;;;1.73;1.63;;;;;;;22.77;56.70;100868.56;4537054;28;20848;-65
2023/09/08 07:23:24;;;;;;;2.40;1.90;;;;;;;22.76;56.40;100867.72;4539162;28;20042;-65
2023/09/08 07:25:35;;;;;;;2.13;1.85;;;;;;;22.77;56.53;100862.81;4553892;28;20025;-65
2023/09/08 07:27:46;;;;;;;1.77;1.67;;;;;;;22.78;56.61;100873.09;4536759;28;20457;-66
2023/09/08 07:29:56;;;;;;;1.90;1.80;;;;;;;22.77;57.41;100872.25;4544742;28;20075;-66
2023/09/08 07:32:08;;;;;;;2.22;2.03;;;;;;;22.80;57.51;100867.81;4539794;28;20032;-66
2023/09/08 07:34:18;;;;;;;2.55;2.10;;;;;;;22.80;57.64;100873.56;4537276;28;20034;-66
2023/09/08 07:36:29;;;;;;;2.10;1.90;;;;;;;22.79;57.67;100875.59;4554796;28;20025;-66
2023/09/08 07:38:40;;;;;;;2.30;2.10;;;;;;;22.80;57.71;100882.22;4538945;28;20120;-66
2023/09/08 07:40:51;;;;;;;2.20;2.00;;;;;;;22.78;58.23;100864.47;4552928;28;20217;-66
2023/09/08 07:43:02;;;;;;;2.05;1.85;;;;;;;22.82;57.86;100874.00;4537267;28;20536;-66
2023/09/08 07:45:12;;;;;;;2.05;1.90;;;;;;;22.81;58.76;100878.09;4556890;28;20041;-66
2023/09/08 07:47:23;;;;;;;2.30;2.10;;;;;;;22.80;58.89;100871.50;4539249;28;20393;-66
2023/09/08 07:49:34;;;;;;;1.90;1.73;;;;;;;22.81;59.19;100869.47;4538009;28;20115;-66
2023/09/08 07:51:45;;;;;;;2.40;2.00;;;;;;;22.78;59.85;100861.59;4538783;28;20114;-66
2023/09/08 07:53:55;;;;;;;2.25;2.03;;;;;;;22.79;60.11;100864.09;4543347;28;20115;-66
2023/09/08 07:56:06;;;;;;;2.50;2.08;;;;;;;22.81;59.88;100861.69;4537608;28;20039;-66
2023/09/08 07:58:16;;;;;;;2.30;2.00;;;;;;;22.78;60.66;100858.72;4543580;28;20037;-66
2023/09/08 08:00:27;;;;;;;2.25;1.98;;;;;;;22.83;60.31;100862.16;4537483;28;20898;-66
2023/09/08 08:02:41;;;;;;;2.20;2.00;;;;;;;22.80;60.33;100854.25;4539163;28;20043;-66
2023/09/08 08:04:52;;;;;;;2.40;2.10;;;;;;;22.80;60.21;100853.44;4540181;28;20939;-66
2023/09/08 08:07:02;;;;;;;2.28;2.08;;;;;;;22.82;60.23;100856.75;4538911;28;20041;-66
2023/09/08 08:09:13;;;;;;;1.85;1.75;;;;;;;22.83;60.30;100855.53;4539043;28;20047;-67
2023/09/08 08:11:23;;;;;;;2.20;1.90;;;;;;;22.84;60.21;100868.72;4536778;28;20021;-66
2023/09/08 08:13:34;;;;;;;2.00;1.80;;;;;;;22.83;60.75;100865.03;4538694;28;20057;-66
2023/09/08 08:15:47;;;;;;;2.10;1.90;;;;;;;22.84;59.72;100868.72;4539635;28;20045;-66
2023/09/08 08:17:57;;;;;;;2.10;1.90;;;;;;;22.83;60.30;100865.03;4540481;28;20120;-66
2023/09/08 08:20:16;;;;;;;1.92;1.63;;;;;;;22.83;60.39;100865.03;4540251;28;20179;-66
2023/09/08 08:22:27;;;;;;;2.33;2.13;;;;;;;22.84;60.80;100871.59;4541838;28;20122;-66
2023/09/08 08:24:37;;;;;;;3.42;1.90;;;;;;;22.84;60.87;100865.84;4539251;28;20079;-66
2023/09/08 08:26:47;;;;;;;1.80;1.70;;;;;;;22.85;61.13;100868.34;4544745;28;20032;-66
2023/09/08 08:28:58;;;;;;;2.00;1.80;;;;;;;22.83;61.82;100862.16;4539201;28;20048;-66
2023/09/08 08:31:08;;;;;;;2.00;1.80;;;;;;;22.83;61.82;100865.03;4540821;28;20497;-66
2023/09/08 08:33:20;;;;;;;2.22;2.03;;;;;;;22.82;61.44;100869.09;4540053;28;20043;-67
2023/09/08 08:35:31;;;;;;;2.13;1.92;;;;;;;22.85;61.78;100874.09;4539086;28;20025;-67
2023/09/08 08:37:42;;;;;;;2.30;2.03;;;;;;;22.84;61.50;100865.84;4539081;28;20033;-67
2023/09/08 08:39:53;;;;;;;1.90;1.80;;;;;;;22.87;61.15;100863.06;4542730;28;20547;-66
2023/09/08 08:42:08;;;;;;;1.80;1.70;;;;;;;22.84;61.02;100854.31;4540990;28;20032;-67
2023/09/08 08:44:20;;;;;;;1.98;1.77;;;;;;;22.87;61.67;100865.94;4538988;28;20030;-66
2023/09/08 08:46:33;;;;;;;2.35;1.85;;;;;;;22.88;60.65;100861.81;4536584;28;20033;-68
2023/09/08 08:48:44;;;;;;;1.75;1.65;;;;;;;22.87;59.38;100859.31;4539538;28;20028;-66
2023/09/08 08:50:55;;;;;;;2.08;1.88;;;;;;;22.87;59.96;100857.28;4539651;28;20048;-67
2023/09/08 08:53:06;;;;;;;2.20;2.00;;;;;;;22.85;60.58;100853.13;4539495;28;20088;-67
2023/09/08 08:55:17;;;;;;;2.38;1.80;;;;;;;22.87;61.48;100862.19;4536633;28;20044;-67
2023/09/08 08:57:28;;;;;;;2.42;1.92;;;;;;;22.88;61.17;100864.69;4536460;28;20052;-66
2023/09/08 08:59:38;;;;;;;2.17;1.98;;;;;;;22.86;60.49;100863.44;4537855;28;20143;-67
2023/09/08 09:01:49;;;;;;;2.42;1.92;;;;;;;22.89;61.46;100862.66;4537170;28;20103;-67
2023/09/08 09:04:00;;;;;;;2.38;2.00;;;;;;;22.87;61.79;100859.31;4543721;28;20041;-67
2023/09/08 09:06:10;;;;;;;2.42;2.05;;;;;;;22.87;61.77;100865.09;4539432;28;20032;-66
2023/09/08 09:08:23;;;;;;;2.00;1.80;;;;;;;22.86;60.92;100858.50;4538194;28;20562;-67
2023/09/08 09:10:33;;;;;;;2.72;1.88;;;;;;;22.85;61.00;100851.06;4537880;28;20033;-67
2023/09/08 09:12:44;;;;;;;2.38;1.85;;;;;;;22.83;60.61;100850.63;4536930;28;20037;-66
2023/09/08 09:14:54;;;;;;;2.28;1.80;;;;;;;22.86;60.66;100846.16;4539801;28;20067;-67
2023/09/08 09:17:10;;;;;;;2.30;2.10;;;;;;;22.90;61.03;100852.81;4543621;28;20039;-66
2023/09/08 09:19:27;;;;;;;2.10;1.90;;;;;;;22.87;60.91;100847.81;4537986;28;20032;-67
2023/09/08 09:21:57;;;;;;;2.90;2.10;;;;;;;22.85;60.73;100841.63;4538213;28;20607;-66
2023/09/08 09:24:07;;;;;;;2.00;1.80;;;;;;;22.88;60.72;100853.19;4539344;28;20033;-66
2023/09/08 09:26:26;;;;;;;2.60;2.03;;;;;;;22.89;61.69;100856.91;4542579;28;20071;-66
2023/09/08 09:28:47;;;;;;;2.20;1.92;;;;;;;22.86;62.75;100835.50;4538339;28;20118;-66
2023/09/08 09:30:58;;;;;;;2.10;1.88;;;;;;;;;;4536519;28;20080;-65
2023/09/08 09:33:09;;;;;;;3.05;1.90;;;;;;;22.85;63.06;100836.69;4536376;28;20044;-67
2023/09/08 09:35:21;;;;;;;2.00;1.80;;;;;;;22.91;59.17;100843.00;4536273;28;20044;-67
2023/09/08 09:37:32;;;;;;;1.83;1.60;;;;;;;23.04;58.40;100848.22;4537515;28;20034;-67
2023/09/08 09:39:42;;;;;;;1.88;1.70;;;;;;;23.11;57.31;100838.91;4537074;28;20041;-67
2023/09/08 09:41:54;;;;;;;1.65;1.52;;;;;;;23.17;57.23;100840.25;4535748;28;20033;-67
2023/09/08 09:44:05;;;;;;;1.50;1.40;;;;;;;23.17;56.96;100828.72;4532209;28;20033;-67
2023/09/08 09:46:15;;;;;;;2.03;1.50;;;;;;;23.23;56.61;100838.75;4537544;28;20029;-67
2023/09/08 09:48:27;;;;;;;1.90;1.60;;;;;;;23.25;56.67;100833.44;4536953;28;20045;-67
2023/09/08 09:50:40;;;;;;;1.30;1.20;;;;;;;23.27;56.31;100828.16;4525385;28;20032;-67
2023/09/08 09:52:50;;;;;;;1.40;1.30;;;;;;;23.28;56.50;100841.34;4536405;28;20026;-67
2023/09/08 09:55:01;;;;;;;2.45;1.48;;;;;;;23.24;56.38;100823.97;4537210;28;20474;-67
2023/09/08 09:57:13;;;;;;;1.73;1.63;;;;;;;23.31;56.31;100831.94;4535884;28;20112;-67
2023/09/08 09:59:24;;;;;;;1.50;1.40;;;;;;;23.33;56.07;100835.28;4536503;28;20030;-67
2023/09/08 10:01:35;;;;;;;1.35;1.25;;;;;;;23.35;55.91;100829.97;4538143;28;20041;-67
2023/09/08 10:03:47;;;;;;;1.45;1.35;;;;;;;23.36;56.21;100828.75;4535796;28;20121;-67
2023/09/08 10:05:59;;;;;;;1.65;1.50;;;;;;;23.32;55.87;100824.97;4524766;28;20041;-66
2023/09/08 10:08:09;;;;;;;1.88;1.38;;;;;;;23.36;55.87;100826.72;4537028;28;20044;-66
2023/09/08 10:10:23;;;;;;;1.83;1.42;;;;;;;23.40;55.92;100826.81;4542118;28;20041;-66
2023/09/08 10:12:36;;;;;;;1.42;1.30;;;;;;;23.38;56.02;100811.94;4536215;28;20029;-66